Time;durP1;ratioP1;P1;durP2;ratioP2;P2;SDS_P1;SDS_P2;PMS_P1;PMS_P2;Temp;Humidity;BMP_temperature;BMP_pressure;BME280_temperature;BME280_humidity;BME280_pressure;Samples;Min_cycle;Max_cycle;Signal;HPM_P1;HPM_P2
2023/08/21 00:00:04;;;;;;;5.00;2.15;;;;;;;18.93;86.48;102192.41;5010228;28;20058;-65
2023/08/21 00:02:29;;;;;;;5.10;2.03;;;;;;;18.95;86.79;102195.03;5010840;28;20084;-67
2023/08/21 00:04:55;;;;;;;6.00;1.80;;;;;;;18.95;87.23;102192.25;5010297;28;20033;-66
2023/08/21 00:07:20;;;;;;;2.75;1.48;;;;;;;18.95;87.98;102195.03;5010109;28;20557;-66
2023/08/21 00:09:46;;;;;;;3.50;1.95;;;;;;;18.96;88.25;102191.25;5011158;28;20056;-66
2023/08/21 00:12:11;;;;;;;4.30;1.60;;;;;;;18.99;88.07;102191.88;5030077;28;20036;-65
2023/08/21 00:14:36;;;;;;;5.45;1.90;;;;;;;19.01;88.25;102189.84;5029976;28;20091;-65
2023/08/21 00:17:05;;;;;;;7.40;1.90;;;;;;;19.03;88.50;102193.34;5028095;28;20045;-66
2023/08/21 00:19:32;;;;;;;8.25;1.75;;;;;;;19.04;88.68;102186.81;5028477;28;20531;-66
2023/08/21 00:21:57;;;;;;;8.70;2.20;;;;;;;18.94;90.04;102173.97;5008824;28;20041;-67
2023/08/21 00:24:22;;;;;;;5.47;1.98;;;;;;;18.79;90.62;102173.38;5009712;28;20449;-67
2023/08/21 00:26:48;;;;;;;7.05;2.13;;;;;;;18.75;90.40;102169.19;5026827;28;20116;-65
2023/08/21 00:29:13;;;;;;;8.30;2.60;;;;;;;18.72;90.35;102172.19;5030427;28;20025;-66
2023/08/21 00:31:38;;;;;;;4.57;2.08;;;;;;;18.66;90.00;102179.06;5019379;28;20034;-65
2023/08/21 00:34:04;;;;;;;4.43;1.92;;;;;;;18.65;89.31;102173.66;5010060;28;20139;-66
2023/08/21 00:36:29;;;;;;;9.35;2.22;;;;;;;18.59;88.85;102173.19;5008954;28;20056;-66
2023/08/21 00:38:55;;;;;;;7.05;2.03;;;;;;;18.54;89.39;102172.72;5010152;28;20409;-66
2023/08/21 00:41:20;;;;;;;7.15;2.05;;;;;;;18.50;89.29;102171.22;5022219;28;20479;-66
2023/08/21 00:43:46;;;;;;;6.30;2.20;;;;;;;18.42;89.46;102165.50;5028160;28;20037;-67
2023/08/21 00:46:11;;;;;;;5.00;1.90;;;;;;;18.43;89.55;102174.63;5028931;28;20029;-70
2023/08/21 00:48:37;;;;;;;7.03;2.20;;;;;;;18.44;89.46;102177.25;5009652;28;20037;-66
2023/08/21 00:51:04;;;;;;;5.57;2.38;;;;;;;18.41;89.37;102182.16;5009209;28;20034;-65
2023/08/21 00:53:30;;;;;;;4.43;2.03;;;;;;;18.38;89.16;102177.78;5009878;28;20418;-66
2023/08/21 00:55:55;;;;;;;4.05;2.03;;;;;;;18.32;89.40;102179.16;5018756;28;20029;-65
2023/08/21 00:58:20;;;;;;;4.65;1.77;;;;;;;18.30;89.53;102183.94;5010385;28;20065;-66
2023/08/21 01:00:49;;;;;;;6.75;1.83;;;;;;;18.25;89.60;102179.81;5008339;28;20038;-66
2023/08/21 01:03:14;;;;;;;6.13;1.98;;;;;;;18.22;90.19;102186.44;5008593;28;20030;-66
2023/08/21 01:05:41;;;;;;;8.98;2.83;;;;;;;18.20;90.75;102184.84;5012051;28;20421;-65
2023/08/21 01:08:13;;;;;;;3.40;2.22;;;;;;;18.22;90.30;102180.94;5027813;28;20056;-66
2023/08/21 01:10:59;;;;;;;4.65;1.88;;;;;;;18.30;89.74;102183.94;5024780;28;20037;-65
2023/08/21 01:13:35;;;;;;;7.20;2.05;;;;;;;18.30;90.51;102185.81;5026579;28;20037;-67
2023/08/21 01:16:03;;;;;;;8.60;2.40;;;;;;;18.26;90.75;102182.44;5026211;28;20072;-68
2023/08/21 01:18:29;;;;;;;7.32;2.10;;;;;;;18.24;91.10;102178.06;5009106;28;20323;-65
2023/08/21 01:20:55;;;;;;;4.60;2.35;;;;;;;18.09;93.19;102167.34;5008164;28;20077;-65
2023/08/21 01:23:34;;;;;;;5.97;2.10;;;;;;;18.00;92.51;102150.66;5007707;28;20077;-66
2023/08/21 01:26:00;;;;;;;6.97;2.25;;;;;;;17.96;92.90;102158.34;5009360;28;20037;-67
2023/08/21 01:28:26;;;;;;;5.47;2.30;;;;;;;17.93;92.78;102160.44;5006797;28;20033;-65
2023/08/21 01:30:59;;;;;;;7.90;2.60;;;;;;;17.85;93.38;102156.44;5009096;28;20403;-65
2023/08/21 01:33:29;;;;;;;7.43;2.10;;;;;;;17.80;93.92;102147.69;4990888;28;20119;-66
2023/08/21 01:35:57;;;;;;;7.32;2.30;;;;;;;17.78;92.99;102149.72;5008228;28;20096;-65
2023/08/21 01:38:24;;;;;;;7.55;2.33;;;;;;;17.77;93.70;102153.47;5007451;28;20493;-68
2023/08/21 01:40:49;;;;;;;6.38;2.13;;;;;;;17.76;92.71;102154.44;5018358;28;20544;-66
2023/08/21 01:43:15;;;;;;;6.07;2.40;;;;;;;17.75;91.73;102157.34;5006721;28;20033;-70
2023/08/21 01:45:40;;;;;;;6.30;2.25;;;;;;;17.73;92.02;102159.31;5009258;28;20026;-67
2023/08/21 01:48:06;;;;;;;4.43;2.10;;;;;;;17.69;91.69;102152.31;5007182;28;20042;-70
2023/08/21 01:50:31;;;;;;;4.50;2.08;;;;;;;17.62;91.81;102153.78;5008104;28;20033;-66
2023/08/21 01:52:56;;;;;;;6.90;2.67;;;;;;;17.60;91.53;102151.19;5018339;28;20029;-66
2023/08/21 01:55:22;;;;;;;8.68;2.30;;;;;;;17.60;91.67;102162.19;5022051;28;20041;-66
2023/08/21 01:57:48;;;;;;;6.75;2.05;;;;;;;17.60;90.95;102163.06;5008058;28;20026;-66
2023/08/21 02:00:14;;;;;;;5.65;2.10;;;;;;;17.57;91.32;102162.41;5019309;28;20384;-66
2023/08/21 02:02:43;;;;;;;5.95;2.20;;;;;;;17.52;91.45;102171.03;5026233;28;20079;-66
2023/08/21 02:05:08;;;;;;;3.95;2.10;;;;;;;17.49;91.77;102173.19;5026268;28;20045;-65
2023/08/21 02:07:34;;;;;;;7.00;2.45;;;;;;;17.47;91.45;102177.94;5025412;28;20037;-69
2023/08/21 02:09:59;;;;;;;5.97;2.67;;;;;;;17.45;91.49;102182.69;5025053;28;20025;-65
2023/08/21 02:12:25;;;;;;;9.15;2.55;;;;;;;17.37;92.41;102174.16;5014116;28;20041;-66
2023/08/21 02:14:51;;;;;;;5.75;1.98;;;;;;;17.30;93.08;102171.91;5006515;28;20045;-66
2023/08/21 02:17:16;;;;;;;10.52;2.70;;;;;;;17.29;92.29;102172.03;5009748;28;20484;-66
2023/08/21 02:19:41;;;;;;;5.57;2.50;;;;;;;17.30;92.15;102179.31;5009111;28;20072;-66
2023/08/21 02:22:07;;;;;;;4.88;2.88;;;;;;;17.30;93.00;102180.16;5007350;28;20017;-65
2023/08/21 02:24:32;;;;;;;5.60;2.70;;;;;;;17.32;92.59;102172.66;5007069;28;20050;-69
2023/08/21 02:26:57;;;;;;;3.97;2.45;;;;;;;17.32;93.12;102183.66;5025649;28;20033;-65
2023/08/21 02:29:23;;;;;;;5.55;2.80;;;;;;;17.33;92.92;102177.16;5027459;28;20041;-67
2023/08/21 02:31:48;;;;;;;6.63;2.60;;;;;;;17.36;92.42;102178.81;5016918;28;20026;-65
2023/08/21 02:34:13;;;;;;;6.22;2.60;;;;;;;17.29;93.16;102174.78;5007297;28;20049;-66
2023/08/21 02:36:39;;;;;;;4.57;2.30;;;;;;;17.27;91.69;102180.41;5007036;28;20465;-66
2023/08/21 02:39:05;;;;;;;8.73;2.45;;;;;;;17.22;92.42;102170.78;5007214;28;20547;-66
2023/08/21 02:41:30;;;;;;;7.30;2.83;;;;;;;17.20;93.25;102176.38;5020978;28;20091;-67
2023/08/21 02:43:56;;;;;;;3.97;2.13;;;;;;;17.19;92.08;102177.38;5027196;28;20048;-66
2023/08/21 02:46:21;;;;;;;4.20;2.50;;;;;;;17.18;91.95;102181.13;5020293;28;20049;-66
2023/08/21 02:48:46;;;;;;;6.75;3.53;;;;;;;17.13;91.71;102175.13;5027465;28;20456;-66
2023/08/21 02:51:12;;;;;;;6.53;2.50;;;;;;;17.10;92.07;102178.09;5027367;28;20030;-67
2023/08/21 02:53:37;;;;;;;6.13;2.70;;;;;;;17.05;93.32;102183.09;5025460;28;20033;-66
2023/08/21 02:56:03;;;;;;;4.43;2.85;;;;;;;17.03;92.64;102185.97;5015755;28;20117;-66
2023/08/21 02:58:28;;;;;;;7.65;2.75;;;;;;;17.02;93.44;102180.56;5005321;28;20077;-67
2023/08/21 03:00:53;;;;;;;8.07;2.60;;;;;;;16.99;93.45;102178.97;4992114;28;20065;-66
2023/08/21 03:03:19;;;;;;;10.50;2.90;;;;;;;16.96;93.20;102168.19;5027390;28;20037;-67
2023/08/21 03:05:44;;;;;;;6.82;2.95;;;;;;;16.93;93.39;102171.19;5027313;28;20084;-66
2023/08/21 03:08:10;;;;;;;8.25;2.72;;;;;;;16.92;93.09;102172.16;5026586;28;20052;-65
2023/08/21 03:10:38;;;;;;;6.72;3.03;;;;;;;16.91;94.36;102166.81;5024763;28;20025;-67
2023/08/21 03:13:03;;;;;;;7.38;3.35;;;;;;;16.90;93.20;102171.44;5026421;28;20519;-67
2023/08/21 03:15:29;;;;;;;8.30;3.22;;;;;;;16.92;92.86;102174.03;5025397;28;20136;-66
2023/08/21 03:17:55;;;;;;;5.05;3.05;;;;;;;16.89;93.11;102177.06;5007765;28;20597;-68
2023/08/21 03:20:20;;;;;;;5.43;2.72;;;;;;;16.87;93.27;102173.53;4989172;28;20041;-65
2023/08/21 03:22:46;;;;;;;6.30;2.40;;;;;;;16.89;92.93;102177.06;5012758;28;20036;-68
2023/08/21 03:25:12;;;;;;;5.82;2.72;;;;;;;16.88;92.93;102178.03;5022090;28;20030;-66
2023/08/21 03:27:39;;;;;;;8.38;2.80;;;;;;;16.85;94.36;102183.78;5005362;28;20386;-67
2023/08/21 03:30:08;;;;;;;5.40;2.78;;;;;;;16.83;93.59;102183.88;5005861;28;20038;-66
2023/08/21 03:32:34;;;;;;;8.98;3.05;;;;;;;16.83;94.08;102176.53;5007440;28;20402;-66
2023/08/21 03:35:00;;;;;;;7.50;3.03;;;;;;;16.81;93.48;102184.00;5005491;28;20147;-66
2023/08/21 03:37:25;;;;;;;5.30;2.67;;;;;;;16.79;94.18;102183.28;4989289;28;20072;-66
2023/08/21 03:39:51;;;;;;;7.45;2.80;;;;;;;16.79;93.48;102176.91;5006561;28;20470;-68
2023/08/21 03:42:16;;;;;;;6.18;2.90;;;;;;;16.79;94.27;102180.53;5026524;28;20033;-67
2023/08/21 03:44:42;;;;;;;6.03;3.20;;;;;;;16.81;95.11;102174.88;5026435;28;20025;-67
2023/08/21 03:47:07;;;;;;;8.45;3.55;;;;;;;16.80;96.17;102174.03;5025504;28;20052;-66
2023/08/21 03:49:38;;;;;;;7.38;3.13;;;;;;;16.80;95.79;102167.66;5025926;28;20549;-66
2023/08/21 03:52:04;;;;;;;6.82;3.80;;;;;;;16.76;96.14;102169.75;5024762;28;20113;-67
2023/08/21 03:54:30;;;;;;;7.20;3.50;;;;;;;16.76;96.89;102166.13;5042187;28;20033;-67
2023/08/21 03:56:55;;;;;;;3.95;2.78;;;;;;;16.74;95.86;102179.09;5028873;28;20120;-67
2023/08/21 03:59:22;;;;;;;5.63;2.92;;;;;;;16.70;95.72;102169.34;5027643;28;20072;-67
2023/08/21 04:01:48;;;;;;;5.20;3.38;;;;;;;16.68;96.25;102171.31;5029202;28;20060;-66
2023/08/21 04:04:13;;;;;;;5.43;2.40;;;;;;;16.64;95.16;102170.66;5025504;28;20489;-66
2023/08/21 04:06:38;;;;;;;6.55;2.80;;;;;;;16.61;95.52;102170.91;5008557;28;20430;-66
2023/08/21 04:09:06;;;;;;;3.95;2.60;;;;;;;16.58;95.27;102171.13;5010674;28;20025;-67
2023/08/21 04:11:32;;;;;;;5.82;2.45;;;;;;;16.57;94.92;102177.63;5014184;28;20037;-67
2023/08/21 04:13:58;;;;;;;2.72;2.30;;;;;;;16.53;94.14;102176.09;5028765;28;20136;-67
2023/08/21 04:16:27;;;;;;;3.92;2.40;;;;;;;16.49;94.70;102174.59;5011686;28;20029;-66
2023/08/21 04:18:53;;;;;;;3.38;2.80;;;;;;;16.44;95.17;102182.31;5028745;28;20084;-67
2023/08/21 04:21:18;;;;;;;5.65;2.63;;;;;;;16.42;95.18;102182.44;5027895;28;20076;-66
2023/08/21 04:23:45;;;;;;;4.97;2.65;;;;;;;16.44;94.40;102183.19;5027464;28;20437;-66
2023/08/21 04:26:11;;;;;;;8.40;3.13;;;;;;;16.43;94.59;102178.69;5035419;28;20041;-67
2023/08/21 04:28:36;;;;;;;5.13;2.97;;;;;;;16.43;94.70;102189.66;5028497;28;20021;-66
2023/08/21 04:31:06;;;;;;;4.68;3.05;;;;;;;16.38;95.28;102183.66;5011327;28;20179;-67
2023/08/21 04:33:33;;;;;;;6.93;2.78;;;;;;;16.41;95.40;102193.50;5028594;28;20511;-67
2023/08/21 04:35:59;;;;;;;7.28;3.60;;;;;;;16.42;96.63;102200.78;5027606;28;20029;-68
2023/08/21 04:38:24;;;;;;;9.07;3.45;;;;;;;16.43;96.60;102192.41;5028349;28;20381;-67
2023/08/21 04:40:50;;;;;;;7.45;3.30;;;;;;;16.44;96.74;102196.91;5026031;28;20032;-66
2023/08/21 04:43:15;;;;;;;6.32;3.08;;;;;;;16.47;97.29;102193.94;5027834;28;20541;-67
2023/08/21 04:45:54;;;;;;;8.52;2.97;;;;;;;16.50;96.95;102196.44;5025280;28;20025;-67
2023/08/21 04:48:22;;;;;;;6.38;2.80;;;;;;;16.53;96.95;102192.59;5026048;28;20033;-67
2023/08/21 04:50:48;;;;;;;7.63;3.22;;;;;;;16.54;96.69;102191.59;5027423;28;20029;-66
2023/08/21 04:53:14;;;;;;;9.05;3.67;;;;;;;16.54;96.68;102197.09;5028502;28;20037;-66
2023/08/21 04:55:40;;;;;;;11.25;3.55;;;;;;;16.54;97.06;102203.44;5027510;28;20428;-66
2023/08/21 04:58:07;;;;;;;11.05;4.00;;;;;;;16.56;96.71;102204.22;5027452;28;20124;-69
2023/08/21 05:00:33;;;;;;;5.55;3.33;;;;;;;16.60;96.41;102207.63;5012096;28;20042;-66
2023/08/21 05:02:58;;;;;;;12.23;3.53;;;;;;;16.65;97.16;102210.03;5026858;28;20048;-69
2023/08/21 05:05:24;;;;;;;10.25;3.08;;;;;;;16.69;96.58;102211.53;5023883;28;20413;-68
2023/08/21 05:07:50;;;;;;;5.55;3.50;;;;;;;16.69;97.35;102212.41;5006652;28;20156;-67
2023/08/21 05:10:16;;;;;;;6.68;3.03;;;;;;;16.70;96.69;102216.91;5020600;28;20087;-68
2023/08/21 05:12:42;;;;;;;6.95;3.75;;;;;;;16.72;97.35;102217.69;5027684;28;20439;-66
2023/08/21 05:15:09;;;;;;;8.20;3.53;;;;;;;16.74;97.31;102223.06;5027479;28;20030;-65
2023/08/21 05:17:34;;;;;;;9.50;3.55;;;;;;;16.78;97.65;102213.59;5014506;28;20034;-67
2023/08/21 05:20:00;;;;;;;7.32;3.42;;;;;;;16.80;97.32;102215.25;5022012;28;20034;-66
2023/08/21 05:22:25;;;;;;;6.50;3.30;;;;;;;16.86;97.38;102218.50;5033591;28;20412;-66
2023/08/21 05:24:51;;;;;;;5.50;3.58;;;;;;;16.86;97.52;102219.38;5026260;28;20555;-66
2023/08/21 05:27:17;;;;;;;6.40;3.30;;;;;;;16.87;97.02;102221.13;5008618;28;20038;-67
2023/08/21 05:29:42;;;;;;;7.25;3.25;;;;;;;16.90;97.17;102228.28;5018483;28;20126;-67
2023/08/21 05:32:08;;;;;;;4.57;3.15;;;;;;;16.92;96.74;102218.91;5019783;28;20033;-68
2023/08/21 05:34:34;;;;;;;5.90;3.40;;;;;;;16.98;96.40;102228.56;5015478;28;20030;-67
2023/08/21 05:37:00;;;;;;;7.13;3.50;;;;;;;17.04;96.88;102234.47;5024751;28;20128;-68
2023/08/21 05:39:26;;;;;;;8.98;3.22;;;;;;;17.10;96.74;102230.34;5027048;28;20111;-68
2023/08/21 05:41:52;;;;;;;5.80;2.90;;;;;;;17.13;95.88;102227.38;5026203;28;20132;-67
2023/08/21 05:44:18;;;;;;;4.50;3.10;;;;;;;17.13;96.54;102227.38;5027052;28;20022;-69
2023/08/21 05:46:44;;;;;;;6.85;2.88;;;;;;;17.11;96.31;102229.34;5025309;28;20124;-68
2023/08/21 05:49:09;;;;;;;12.88;2.85;;;;;;;17.13;96.07;102238.38;5027157;28;20045;-68
2023/08/21 05:51:35;;;;;;;4.82;2.83;;;;;;;17.16;96.45;102238.16;5008454;28;20492;-68
2023/08/21 05:54:00;;;;;;;9.95;3.35;;;;;;;17.18;97.44;102240.78;5008548;28;20100;-68
2023/08/21 05:56:26;;;;;;;7.85;3.05;;;;;;;17.21;96.61;102235.91;5014874;28;20034;-69
2023/08/21 05:58:51;;;;;;;7.40;3.83;;;;;;;17.25;96.77;102239.28;5037030;28;20713;-69
2023/08/21 06:01:17;;;;;;;9.00;3.40;;;;;;;17.25;97.33;102237.44;5015496;28;20061;-69
2023/08/21 06:03:43;;;;;;;8.23;3.95;;;;;;;17.29;96.31;102238.03;5025967;28;20043;-68
2023/08/21 06:06:18;;;;;;;10.23;3.83;;;;;;;17.32;96.95;102240.56;5024702;28;20481;-68
2023/08/21 06:08:44;;;;;;;6.05;3.75;;;;;;;17.36;95.92;102233.81;5043764;28;20035;-68
2023/08/21 06:11:09;;;;;;;9.07;3.38;;;;;;;17.41;96.26;102245.34;5015871;28;20028;-68
2023/08/21 06:13:35;;;;;;;7.07;3.50;;;;;;;17.43;96.19;102240.56;5024837;28;20112;-68
2023/08/21 06:16:01;;;;;;;8.85;3.80;;;;;;;17.49;96.10;102247.50;5008811;28;20037;-68
2023/08/21 06:18:27;;;;;;;8.82;3.85;;;;;;;17.54;96.19;102242.50;5026015;28;20036;-67
2023/08/21 06:20:55;;;;;;;9.02;4.35;;;;;;;17.62;96.34;102248.25;5023881;28;20037;-68
2023/08/21 06:23:21;;;;;;;11.30;4.53;;;;;;;17.69;95.71;102245.91;5006477;28;20037;-67
2023/08/21 06:25:50;;;;;;;8.82;4.15;;;;;;;17.75;95.74;102246.28;5015129;28;20041;-67
2023/08/21 06:28:16;;;;;;;6.70;4.38;;;;;;;17.85;95.49;102243.66;5016273;28;20029;-67
2023/08/21 06:30:42;;;;;;;7.97;4.50;;;;;;;17.91;95.97;102243.19;5006914;28;20053;-68
2023/08/21 06:33:08;;;;;;;8.10;5.05;;;;;;;17.96;96.41;102251.97;5006693;28;20037;-67
2023/08/21 06:35:36;;;;;;;9.27;5.00;;;;;;;18.03;95.50;102252.31;5006446;28;20065;-67
2023/08/21 06:38:02;;;;;;;8.57;5.40;;;;;;;18.08;95.23;102253.69;5006390;28;20057;-67
2023/08/21 06:40:27;;;;;;;13.18;5.35;;;;;;;18.15;95.78;102255.97;5018239;28;20034;-70
2023/08/21 06:42:52;;;;;;;14.77;5.05;;;;;;;18.21;95.51;102252.69;5027053;28;20045;-69
2023/08/21 06:45:21;;;;;;;13.23;5.50;;;;;;;18.29;94.80;102250.19;5026404;28;20037;-67
2023/08/21 06:47:47;;;;;;;10.15;5.80;;;;;;;18.36;95.01;102260.56;5012032;28;20470;-66
2023/08/21 06:50:12;;;;;;;10.43;5.13;;;;;;;18.42;93.80;102250.94;5007129;28;20658;-66
2023/08/21 06:52:38;;;;;;;10.77;5.85;;;;;;;18.48;95.20;102244.03;5014598;28;20033;-68
2023/08/21 06:55:03;;;;;;;10.77;5.53;;;;;;;18.53;94.82;102253.66;5024785;28;20044;-69
2023/08/21 06:57:29;;;;;;;12.80;6.85;;;;;;;18.60;95.42;102254.91;5005898;28;20042;-67
2023/08/21 06:59:54;;;;;;;9.93;6.03;;;;;;;18.68;94.09;102254.25;5007667;28;20378;-67
2023/08/21 07:02:20;;;;;;;14.35;6.88;;;;;;;18.74;95.36;102245.47;5019921;28;20030;-67
2023/08/21 07:04:45;;;;;;;14.35;7.25;;;;;;;18.83;94.18;102255.72;5014443;28;20484;-67
2023/08/21 07:07:10;;;;;;;10.73;6.43;;;;;;;18.94;94.36;102265.00;5007618;28;20045;-66
2023/08/21 07:09:36;;;;;;;12.43;5.95;;;;;;;19.01;94.08;102258.78;5007654;28;20373;-66
2023/08/21 07:12:01;;;;;;;9.18;5.78;;;;;;;19.13;93.45;102256.00;5010543;28;20492;-67
2023/08/21 07:14:27;;;;;;;15.27;6.38;;;;;;;19.26;93.92;102253.94;5007224;28;20638;-66
2023/08/21 07:16:52;;;;;;;15.18;6.78;;;;;;;19.42;91.82;102261.75;5006674;28;20061;-66
2023/08/21 07:19:17;;;;;;;12.85;6.88;;;;;;;19.58;91.06;102260.28;5007110;28;20062;-67
2023/08/21 07:21:43;;;;;;;11.18;6.53;;;;;;;19.75;90.52;102253.28;5006604;28;20046;-67
2023/08/21 07:24:08;;;;;;;12.95;7.07;;;;;;;19.92;92.23;102257.31;5006240;28;20331;-66
2023/08/21 07:26:33;;;;;;;13.80;6.50;;;;;;;20.09;94.89;102255.75;5007089;28;20049;-66
2023/08/21 07:28:59;;;;;;;11.02;6.47;;;;;;;20.26;93.75;102251.47;5006946;28;20045;-68
2023/08/21 07:31:24;;;;;;;11.15;6.72;;;;;;;20.40;94.14;102256.63;5009728;28;20033;-67
2023/08/21 07:33:50;;;;;;;16.48;6.70;;;;;;;20.51;92.21;102259.28;5011295;28;20042;-67
2023/08/21 07:36:17;;;;;;;16.55;6.75;;;;;;;20.59;89.95;102259.47;5009944;28;20375;-67
2023/08/21 07:38:45;;;;;;;11.00;5.25;;;;;;;20.68;88.10;102265.16;5011407;28;20398;-66
2023/08/21 07:41:12;;;;;;;11.82;5.70;;;;;;;20.74;88.44;102262.69;5013839;28;20070;-67
2023/08/21 07:43:39;;;;;;;9.20;5.43;;;;;;;20.76;85.79;102268.09;5010578;28;20033;-66
2023/08/21 07:46:06;;;;;;;15.57;6.05;;;;;;;20.73;85.43;102265.59;5010993;28;20401;-66
2023/08/21 07:48:31;;;;;;;10.90;5.28;;;;;;;20.74;83.93;102265.47;5010497;28;20038;-66
2023/08/21 07:50:57;;;;;;;11.85;4.85;;;;;;;20.90;85.98;102264.91;5009816;28;20144;-69
2023/08/21 07:53:23;;;;;;;10.10;5.32;;;;;;;20.93;82.96;102261.84;5016380;28;20124;-66
2023/08/21 07:55:49;;;;;;;11.80;5.30;;;;;;;20.96;80.47;102264.31;5018814;28;20400;-66
2023/08/21 07:58:14;;;;;;;13.68;5.53;;;;;;;21.03;80.68;102271.06;5015175;28;20033;-71
2023/08/21 08:00:42;;;;;;;13.02;5.13;;;;;;;21.21;82.01;102273.94;5011115;28;20105;-67
2023/08/21 08:03:08;;;;;;;10.25;5.00;;;;;;;21.35;80.80;102273.53;5027220;28;20063;-67
2023/08/21 08:05:33;;;;;;;6.63;3.97;;;;;;;21.46;83.76;102274.44;5010012;28;20033;-68
2023/08/21 08:07:58;;;;;;;10.70;4.70;;;;;;;21.52;84.51;102277.47;5009949;28;20033;-66
2023/08/21 08:10:24;;;;;;;13.38;4.68;;;;;;;21.61;82.76;102275.72;5010462;28;20034;-66
2023/08/21 08:12:50;;;;;;;13.02;4.85;;;;;;;21.73;80.32;102279.16;5024135;28;20033;-66
2023/08/21 08:15:16;;;;;;;10.70;5.30;;;;;;;21.89;80.49;102277.53;5021265;28;20379;-67
2023/08/21 08:17:41;;;;;;;11.93;5.25;;;;;;;22.08;76.97;102281.25;5023034;28;20183;-67
2023/08/21 08:20:07;;;;;;;15.25;5.22;;;;;;;22.35;75.49;102278.56;5029534;28;20138;-67
2023/08/21 08:22:33;;;;;;;12.38;5.07;;;;;;;22.52;73.69;102279.66;5028739;28;20034;-67
2023/08/21 08:24:58;;;;;;;15.43;5.43;;;;;;;22.87;73.88;102286.28;5010982;28;20034;-66
2023/08/21 08:27:23;;;;;;;9.88;4.60;;;;;;;23.14;72.81;102280.72;5015916;28;20041;-66
2023/08/21 08:29:49;;;;;;;12.60;4.45;;;;;;;23.49;73.00;102275.28;5009824;28;20029;-66
2023/08/21 08:32:14;;;;;;;11.18;4.70;;;;;;;23.72;68.85;102272.91;5009603;28;20038;-70
2023/08/21 08:34:40;;;;;;;6.60;3.90;;;;;;;23.83;68.57;102267.09;5010491;28;20034;-66
2023/08/21 08:37:05;;;;;;;8.70;4.20;;;;;;;23.97;68.53;102272.03;5008741;28;20331;-65
2023/08/21 08:39:31;;;;;;;13.00;3.90;;;;;;;24.03;68.03;102279.72;5009376;28;20038;-67
2023/08/21 08:42:02;;;;;;;9.65;4.45;;;;;;;24.22;67.93;102274.97;5010286;28;20508;-66
2023/08/21 08:44:29;;;;;;;9.35;3.63;;;;;;;24.46;67.21;102277.00;5009301;28;20542;-66
2023/08/21 08:46:55;;;;;;;14.45;4.40;;;;;;;24.72;67.00;102275.03;5009750;28;20159;-66
2023/08/21 08:49:22;;;;;;;11.38;3.88;;;;;;;24.90;68.61;102284.13;5009827;28;20045;-66
2023/08/21 08:51:49;;;;;;;9.52;4.28;;;;;;;24.90;62.80;102283.22;5008673;28;20037;-67
2023/08/21 08:54:16;;;;;;;7.50;3.30;;;;;;;24.91;66.28;102288.66;5014923;28;20112;-67
2023/08/21 08:56:42;;;;;;;12.35;3.83;;;;;;;24.94;63.27;102282.72;5017617;28;20469;-67
2023/08/21 08:59:08;;;;;;;12.05;3.63;;;;;;;25.02;66.66;102289.38;5009383;28;20073;-67
2023/08/21 09:01:34;;;;;;;9.50;2.97;;;;;;;25.11;67.44;102275.31;5009519;28;20044;-68
2023/08/21 09:04:00;;;;;;;10.15;3.45;;;;;;;25.20;64.11;102290.13;5009270;28;20045;-66
2023/08/21 09:06:26;;;;;;;12.57;3.53;;;;;;;25.30;63.99;102282.47;5008525;28;20388;-67
2023/08/21 09:08:55;;;;;;;10.45;3.90;;;;;;;25.10;60.42;102276.38;5008944;28;20033;-66
2023/08/21 09:11:21;;;;;;;8.43;4.05;;;;;;;25.03;61.14;102278.03;5011435;28;20124;-66
2023/08/21 09:13:51;;;;;;;11.35;3.75;;;;;;;24.91;61.04;102279.44;5027527;28;20120;-66
2023/08/21 09:16:18;;;;;;;8.63;3.10;;;;;;;24.99;61.93;102276.63;5024576;28;20065;-65
2023/08/21 09:18:59;;;;;;;15.15;3.42;;;;;;;25.08;59.47;102274.78;5009816;28;20497;-66
2023/08/21 09:21:25;;;;;;;10.10;2.40;;;;;;;25.05;56.82;102267.63;5012239;28;20041;-67
2023/08/21 09:23:58;;;;;;;11.40;2.08;;;;;;;25.28;58.34;102272.56;5029061;28;20068;-65
2023/08/21 09:26:24;;;;;;;8.25;2.22;;;;;;;25.24;53.44;102276.72;5015029;28;20076;-65
2023/08/21 09:28:51;;;;;;;9.07;1.90;;;;;;;25.40;55.29;102273.94;5007988;28;20034;-67
2023/08/21 09:31:24;;;;;;;4.00;2.08;;;;;;;25.42;57.53;102269.06;5010824;28;20026;-67
2023/08/21 09:33:57;;;;;;;10.52;2.50;;;;;;;25.51;61.45;102262.47;5009080;28;20038;-66
2023/08/21 09:36:22;;;;;;;7.68;2.20;;;;;;;25.87;61.51;102265.72;5007593;28;20044;-66
2023/08/21 09:38:47;;;;;;;7.13;2.17;;;;;;;26.27;56.99;102263.03;5008909;28;20037;-67
2023/08/21 09:41:13;;;;;;;12.50;2.67;;;;;;;26.45;56.01;102261.75;5019902;28;20236;-66
2023/08/21 09:43:42;;;;;;;8.23;2.60;;;;;;;26.42;54.87;102270.44;5022103;28;20030;-66
2023/08/21 09:46:08;;;;;;;7.03;2.72;;;;;;;26.98;55.72;102267.56;5009813;28;20038;-66
2023/08/21 09:48:35;;;;;;;7.28;2.10;;;;;;;27.60;52.74;102266.59;5028401;28;20038;-66
2023/08/21 09:51:03;;;;;;;5.32;1.50;;;;;;;27.96;50.37;102264.84;5025917;28;20040;-66
2023/08/21 09:53:29;;;;;;;6.32;1.55;;;;;;;28.26;52.22;102263.97;5015934;28;20042;-66
2023/08/21 09:55:55;;;;;;;4.70;1.83;;;;;;;28.44;50.89;102261.69;5011492;28;20777;-66
2023/08/21 09:58:21;;;;;;;7.22;2.05;;;;;;;28.51;49.83;102265.47;5027367;28;20061;-67
2023/08/21 10:00:49;;;;;;;9.02;2.35;;;;;;;28.78;52.40;102260.19;5027609;28;20037;-69
2023/08/21 10:03:19;;;;;;;6.63;1.90;;;;;;;29.41;51.34;102258.53;5028403;28;20049;-70
2023/08/21 10:05:47;;;;;;;7.15;1.80;;;;;;;29.74;48.75;102258.84;5026267;28;20033;-69
2023/08/21 10:08:15;;;;;;;6.72;2.08;;;;;;;29.99;48.37;102256.44;5008599;28;20041;-67
2023/08/21 10:10:41;;;;;;;7.95;2.28;;;;;;;30.06;46.63;102256.47;5015202;28;20029;-67
2023/08/21 10:13:08;;;;;;;10.20;2.00;;;;;;;29.95;44.96;102250.38;5027575;28;20041;-65
2023/08/21 10:15:35;;;;;;;11.05;2.65;;;;;;;30.10;45.78;102258.66;5020815;28;20038;-66
2023/08/21 10:18:23;;;;;;;4.95;2.22;;;;;;;30.35;50.00;102244.16;5025287;28;20112;-66
2023/08/21 10:20:49;;;;;;;8.60;2.50;;;;;;;30.29;45.07;102243.03;5015990;28;20111;-69
2023/08/21 10:23:29;;;;;;;6.72;2.58;;;;;;;30.41;48.42;102235.78;5006788;28;20041;-68
2023/08/21 10:25:59;;;;;;;9.57;2.30;;;;;;;30.49;46.79;102244.00;5018901;28;20091;-66
2023/08/21 10:28:40;;;;;;;11.20;2.08;;;;;;;30.54;45.88;102248.13;5026827;28;20029;-67
2023/08/21 10:31:31;;;;;;;4.55;1.50;;;;;;;30.61;46.38;102249.03;5025133;28;20044;-67
2023/08/21 10:33:58;;;;;;;6.00;1.48;;;;;;;30.54;43.55;102242.50;5008118;28;20034;-65
2023/08/21 10:36:42;;;;;;;8.40;1.40;;;;;;;30.51;48.38;102241.00;5006261;28;20034;-66
2023/08/21 10:39:18;;;;;;;4.72;1.63;;;;;;;30.02;42.59;102238.31;5008934;28;20054;-66
2023/08/21 10:41:57;;;;;;;6.57;1.70;;;;;;;29.82;42.80;102244.66;5007607;28;20029;-66
2023/08/21 10:44:59;;;;;;;5.68;1.48;;;;;;;29.79;43.79;102238.59;5007595;28;20050;-67
2023/08/21 10:47:27;;;;;;;;;;;;;;;30.05;46.94;102243.53;5009857;28;20536;-67
2023/08/21 10:49:55;;;;;;;6.65;1.75;;;;;;;30.03;44.04;102242.84;5006795;28;19976;-67
2023/08/21 10:52:22;;;;;;;6.60;1.80;;;;;;;30.30;41.92;102238.28;5010375;28;20029;-66
2023/08/21 10:54:50;;;;;;;6.55;1.30;;;;;;;30.52;46.40;102251.16;5027265;28;20453;-69
2023/08/21 10:57:16;;;;;;;6.75;1.60;;;;;;;30.66;43.88;102243.66;5025936;28;20042;-67
2023/08/21 11:00:12;;;;;;;5.65;1.42;;;;;;;30.65;46.94;102244.72;5008037;28;20087;-66
2023/08/21 11:02:40;;;;;;;3.25;1.60;;;;;;;30.52;40.87;102250.28;5018985;28;20100;-66
2023/08/21 11:05:07;;;;;;;8.32;1.80;;;;;;;30.68;42.38;102245.19;5009635;28;20080;-66
2023/08/21 11:07:41;;;;;;;8.63;1.70;;;;;;;30.49;43.12;102237.50;5010509;28;20061;-66
2023/08/21 11:10:10;;;;;;;3.83;1.60;;;;;;;30.26;38.77;102236.97;5011762;28;20030;-66
2023/08/21 11:12:36;;;;;;;5.55;1.55;;;;;;;30.45;44.07;102241.81;5015067;28;20082;-66
2023/08/21 11:15:03;;;;;;;9.95;1.63;;;;;;;30.69;44.72;102240.44;5009712;28;20057;-67
2023/08/21 11:17:28;;;;;;;3.65;1.35;;;;;;;30.57;40.39;102234.53;5011090;28;20095;-66
2023/08/21 11:19:53;;;;;;;5.40;1.83;;;;;;;30.16;42.07;102232.59;5011303;28;20041;-66
2023/08/21 11:22:19;;;;;;;4.78;1.48;;;;;;;30.41;41.81;102229.28;5010901;28;20056;-67